Startpagina
METAR-TAF:

METAR-TAF

Vliegvelden :

Jackson, Wyoming, Verenigde Staten

breedte: 43-36N, lengte: 110-44W, hoogte: 1964 m

Actueel weer

Dit bericht is 53 minuten geleden gemaakt, om 00:56 UTC
Wind 7 kt uit het zuidwesten
Temperatuur 7°C
Vochtigheid 39%
Druk 1020 hPa
Zicht: 16.1 km
Onbewolkt

METAR: KJAC 160056Z 22007KT 10SM CLR 07/M06 A3012 RMK AO2 SLP228 T00721056

Tijdstip: 18:49 (01:49 UTC)

Verwachting

Dit bericht is 2 uur en het 13 minuten geleden gemaakt, om 23:36 UTC
Verwachting geldig van 16 om 00 UTC tot 16 om 24 UTC
Wind 7 kt uit het zuidzuidwesten
Zicht: 10 km
Verspreide wolken op 10000 ft
Gebroken wolken op 15000 ft
Van 16 om 1000 UTC
Wind 8 kt uit het westzuidwesten
Zicht: 10 km
Verspreide wolken op 4000 ft
Gebroken wolken op 10000 ft
buien in de omgeving
Van 16 om 1900 UTC
Wind 7 kt uit het westen
Zicht: 10 km
Onbewolkt

TAF: KJAC 152336Z 1600/1624 20007KT P6SM SCT100 BKN150 FM161000 24008KT P6SM VCSH SCT040 BKN100 FM161900 26007KT P6SM SKC AMD LTD TO CLD VIS AND WIND

Waarnemingen en weersverwachtingen van meer dan 4000 vliegvelden (METAR en TAF).

De beschikbare stations zijn de gele en rode punten op de kaart.

Ga met uw muis naar het station om de naam te zien.

Klik dan om waarnemingen en weersverwachtingen te zien.

kaart wijzigen: klik op de groene knoppen met een zwart kruis om in te zoomen, op de groene knop met een streepje om uit te zoomen of op de groene pijlen voor aangrenzende kaarten.


METAR-TAF: